sensor_id;sensor_type;location;lat;lon;timestamp;pressure;altitude;pressure_sealevel;temperature;humidity
6387;BME280;3226;42.162;24.756;2023-06-22T00:00:27;99885.66;;;22.98;73.72
6387;BME280;3226;42.162;24.756;2023-06-22T00:02:57;99896.31;;;22.91;74.21
6387;BME280;3226;42.162;24.756;2023-06-22T00:05:25;99881.84;;;22.52;74.78
6387;BME280;3226;42.162;24.756;2023-06-22T00:07:54;99891.19;;;22.41;75.96
6387;BME280;3226;42.162;24.756;2023-06-22T00:10:22;99888.25;;;22.22;76.75
6387;BME280;3226;42.162;24.756;2023-06-22T00:12:50;99900.00;;;22.28;75.35
6387;BME280;3226;42.162;24.756;2023-06-22T00:15:18;99894.00;;;22.26;76.16
6387;BME280;3226;42.162;24.756;2023-06-22T00:17:46;99893.38;;;22.17;76.44
6387;BME280;3226;42.162;24.756;2023-06-22T00:20:15;99894.22;;;21.89;77.48
6387;BME280;3226;42.162;24.756;2023-06-22T00:22:44;99890.47;;;21.77;77.84
6387;BME280;3226;42.162;24.756;2023-06-22T00:25:14;99892.06;;;21.71;79.04
6387;BME280;3226;42.162;24.756;2023-06-22T00:27:42;99895.00;;;21.83;78.45
6387;BME280;3226;42.162;24.756;2023-06-22T00:30:11;99897.50;;;21.91;78.57
6387;BME280;3226;42.162;24.756;2023-06-22T00:32:39;99911.53;;;22.07;77.33
6387;BME280;3226;42.162;24.756;2023-06-22T00:35:07;99907.66;;;22.09;76.26
6387;BME280;3226;42.162;24.756;2023-06-22T00:37:38;99911.81;;;22.12;76.21
6387;BME280;3226;42.162;24.756;2023-06-22T00:40:09;99912.38;;;22.07;76.71
6387;BME280;3226;42.162;24.756;2023-06-22T00:42:38;99914.84;;;22.09;75.95
6387;BME280;3226;42.162;24.756;2023-06-22T00:45:07;99911.41;;;22.22;75.10
6387;BME280;3226;42.162;24.756;2023-06-22T00:47:35;99902.34;;;22.09;75.40
6387;BME280;3226;42.162;24.756;2023-06-22T00:50:06;99915.31;;;22.19;75.29
6387;BME280;3226;42.162;24.756;2023-06-22T00:52:35;99904.78;;;22.04;75.74
6387;BME280;3226;42.162;24.756;2023-06-22T00:55:05;99912.44;;;22.14;75.65
6387;BME280;3226;42.162;24.756;2023-06-22T00:57:33;99906.06;;;22.15;75.88
6387;BME280;3226;42.162;24.756;2023-06-22T01:00:05;99909.16;;;22.19;76.86
6387;BME280;3226;42.162;24.756;2023-06-22T01:02:47;99916.75;;;22.15;76.95
6387;BME280;3226;42.162;24.756;2023-06-22T01:05:19;99900.25;;;22.05;77.79
6387;BME280;3226;42.162;24.756;2023-06-22T01:07:59;99920.81;;;22.11;77.80
6387;BME280;3226;42.162;24.756;2023-06-22T01:10:37;99912.78;;;22.04;77.50
6387;BME280;3226;42.162;24.756;2023-06-22T01:13:15;99912.69;;;21.91;78.76
6387;BME280;3226;42.162;24.756;2023-06-22T01:15:45;99913.91;;;21.16;81.57
6387;BME280;3226;42.162;24.756;2023-06-22T01:18:18;99928.41;;;20.92;84.38
6387;BME280;3226;42.162;24.756;2023-06-22T01:20:47;99932.09;;;20.61;85.28
6387;BME280;3226;42.162;24.756;2023-06-22T01:23:24;99929.72;;;20.81;84.86
6387;BME280;3226;42.162;24.756;2023-06-22T01:26:08;99923.44;;;20.89;84.16
6387;BME280;3226;42.162;24.756;2023-06-22T01:28:45;99921.59;;;21.04;83.28
6387;BME280;3226;42.162;24.756;2023-06-22T01:31:16;99915.13;;;21.14;82.09
6387;BME280;3226;42.162;24.756;2023-06-22T01:33:51;99910.59;;;21.14;81.68
6387;BME280;3226;42.162;24.756;2023-06-22T01:36:21;99922.78;;;21.02;82.66
6387;BME280;3226;42.162;24.756;2023-06-22T01:38:50;99910.66;;;20.99;82.18
6387;BME280;3226;42.162;24.756;2023-06-22T01:41:20;99912.00;;;21.10;80.88
6387;BME280;3226;42.162;24.756;2023-06-22T01:43:50;99909.34;;;21.10;80.70
6387;BME280;3226;42.162;24.756;2023-06-22T01:46:19;99904.31;;;21.00;80.71
6387;BME280;3226;42.162;24.756;2023-06-22T01:48:48;99904.22;;;21.08;80.67
6387;BME280;3226;42.162;24.756;2023-06-22T01:51:17;99889.63;;;21.04;79.85
6387;BME280;3226;42.162;24.756;2023-06-22T01:53:45;99901.56;;;21.08;80.81
6387;BME280;3226;42.162;24.756;2023-06-22T01:56:17;99909.53;;;21.08;80.69
6387;BME280;3226;42.162;24.756;2023-06-22T01:58:50;99893.94;;;21.05;80.29
6387;BME280;3226;42.162;24.756;2023-06-22T02:01:23;99908.19;;;20.98;80.68
6387;BME280;3226;42.162;24.756;2023-06-22T02:04:03;99917.06;;;21.05;80.96
6387;BME280;3226;42.162;24.756;2023-06-22T02:06:37;99918.59;;;20.92;81.80
6387;BME280;3226;42.162;24.756;2023-06-22T02:09:09;99917.03;;;20.83;82.22
6387;BME280;3226;42.162;24.756;2023-06-22T02:11:40;99905.28;;;20.92;81.28
6387;BME280;3226;42.162;24.756;2023-06-22T02:14:10;99905.47;;;21.13;81.18
6387;BME280;3226;42.162;24.756;2023-06-22T02:16:40;99905.34;;;21.21;80.17
6387;BME280;3226;42.162;24.756;2023-06-22T02:19:09;99915.38;;;21.19;81.16
6387;BME280;3226;42.162;24.756;2023-06-22T02:21:37;99912.50;;;21.20;80.79
6387;BME280;3226;42.162;24.756;2023-06-22T02:24:05;99918.53;;;21.07;81.99
6387;BME280;3226;42.162;24.756;2023-06-22T02:26:33;99918.84;;;21.19;81.87
6387;BME280;3226;42.162;24.756;2023-06-22T02:29:02;99917.41;;;21.17;81.08
6387;BME280;3226;42.162;24.756;2023-06-22T02:31:31;99919.44;;;21.15;81.93
6387;BME280;3226;42.162;24.756;2023-06-22T02:33:59;99910.03;;;21.19;81.62
6387;BME280;3226;42.162;24.756;2023-06-22T02:36:27;99919.53;;;21.28;81.92
6387;BME280;3226;42.162;24.756;2023-06-22T02:38:58;99921.16;;;21.22;81.91
6387;BME280;3226;42.162;24.756;2023-06-22T02:41:28;99926.25;;;21.24;81.89
6387;BME280;3226;42.162;24.756;2023-06-22T02:43:56;99932.81;;;21.21;81.51
6387;BME280;3226;42.162;24.756;2023-06-22T02:46:24;99931.78;;;21.22;81.73
6387;BME280;3226;42.162;24.756;2023-06-22T02:48:53;99933.38;;;21.17;81.39
6387;BME280;3226;42.162;24.756;2023-06-22T02:51:21;99932.09;;;21.13;82.21
6387;BME280;3226;42.162;24.756;2023-06-22T02:53:49;99932.50;;;21.09;82.05
6387;BME280;3226;42.162;24.756;2023-06-22T02:56:24;99940.28;;;21.11;81.51
6387;BME280;3226;42.162;24.756;2023-06-22T02:58:52;99939.06;;;21.14;81.84
6387;BME280;3226;42.162;24.756;2023-06-22T03:01:20;99932.50;;;21.09;81.91
6387;BME280;3226;42.162;24.756;2023-06-22T03:03:50;99942.28;;;21.09;81.47
6387;BME280;3226;42.162;24.756;2023-06-22T03:06:20;99949.66;;;21.07;81.69
6387;BME280;3226;42.162;24.756;2023-06-22T03:08:50;99943.88;;;21.03;82.15
6387;BME280;3226;42.162;24.756;2023-06-22T03:11:19;99953.06;;;21.01;81.80
6387;BME280;3226;42.162;24.756;2023-06-22T03:13:47;99951.34;;;20.93;81.54
6387;BME280;3226;42.162;24.756;2023-06-22T03:16:15;99946.13;;;20.85;81.82
6387;BME280;3226;42.162;24.756;2023-06-22T03:18:42;99947.88;;;20.92;81.28
6387;BME280;3226;42.162;24.756;2023-06-22T03:21:11;99954.75;;;20.72;82.04
6387;BME280;3226;42.162;24.756;2023-06-22T03:23:40;99958.25;;;20.72;82.16
6387;BME280;3226;42.162;24.756;2023-06-22T03:26:08;99962.19;;;20.76;81.64
6387;BME280;3226;42.162;24.756;2023-06-22T03:28:37;99959.00;;;20.51;83.22
6387;BME280;3226;42.162;24.756;2023-06-22T03:31:05;99957.16;;;20.21;83.31
6387;BME280;3226;42.162;24.756;2023-06-22T03:33:34;99960.66;;;20.22;83.37
6387;BME280;3226;42.162;24.756;2023-06-22T03:36:02;99965.41;;;20.27;82.73
6387;BME280;3226;42.162;24.756;2023-06-22T03:38:30;99963.97;;;20.39;81.66
6387;BME280;3226;42.162;24.756;2023-06-22T03:40:59;99967.69;;;20.00;83.42
6387;BME280;3226;42.162;24.756;2023-06-22T03:43:27;99968.97;;;20.04;83.13
6387;BME280;3226;42.162;24.756;2023-06-22T03:45:55;99966.88;;;20.14;83.18
6387;BME280;3226;42.162;24.756;2023-06-22T03:48:24;99958.06;;;20.29;82.92
6387;BME280;3226;42.162;24.756;2023-06-22T03:50:52;99962.75;;;20.42;81.47
6387;BME280;3226;42.162;24.756;2023-06-22T03:53:19;99968.06;;;20.27;81.37
6387;BME280;3226;42.162;24.756;2023-06-22T03:55:48;99956.91;;;20.31;81.65
6387;BME280;3226;42.162;24.756;2023-06-22T03:58:19;99967.16;;;20.49;81.00
6387;BME280;3226;42.162;24.756;2023-06-22T04:00:48;99963.38;;;20.59;81.19
6387;BME280;3226;42.162;24.756;2023-06-22T04:03:16;99960.81;;;20.65;81.14
6387;BME280;3226;42.162;24.756;2023-06-22T04:05:46;99961.38;;;20.61;82.04
6387;BME280;3226;42.162;24.756;2023-06-22T04:08:14;99958.50;;;20.77;81.68
6387;BME280;3226;42.162;24.756;2023-06-22T04:10:42;99958.13;;;20.96;81.42
6387;BME280;3226;42.162;24.756;2023-06-22T04:13:10;99956.25;;;21.11;80.86
6387;BME280;3226;42.162;24.756;2023-06-22T04:15:40;99966.72;;;21.34;79.56
6387;BME280;3226;42.162;24.756;2023-06-22T04:18:08;99973.41;;;21.67;77.31
6387;BME280;3226;42.162;24.756;2023-06-22T04:20:36;99972.75;;;22.15;74.79
6387;BME280;3226;42.162;24.756;2023-06-22T04:23:04;99968.72;;;22.33;74.21
6387;BME280;3226;42.162;24.756;2023-06-22T04:25:33;99970.72;;;22.24;73.18
6387;BME280;3226;42.162;24.756;2023-06-22T04:28:01;99968.66;;;22.19;73.49
6387;BME280;3226;42.162;24.756;2023-06-22T04:30:32;99970.66;;;22.10;73.10
6387;BME280;3226;42.162;24.756;2023-06-22T04:33:02;99960.91;;;22.24;72.95
6387;BME280;3226;42.162;24.756;2023-06-22T04:35:30;99963.22;;;22.34;72.65
6387;BME280;3226;42.162;24.756;2023-06-22T04:37:58;99962.03;;;22.44;72.17
6387;BME280;3226;42.162;24.756;2023-06-22T04:40:26;99970.94;;;22.58;72.50
6387;BME280;3226;42.162;24.756;2023-06-22T04:42:55;99974.03;;;22.55;71.81
6387;BME280;3226;42.162;24.756;2023-06-22T04:45:23;99979.41;;;22.68;71.63
6387;BME280;3226;42.162;24.756;2023-06-22T04:47:51;99986.03;;;22.79;71.20
6387;BME280;3226;42.162;24.756;2023-06-22T04:50:20;99976.19;;;22.86;71.08
6387;BME280;3226;42.162;24.756;2023-06-22T04:52:50;99980.94;;;22.98;70.46
6387;BME280;3226;42.162;24.756;2023-06-22T04:55:19;99983.53;;;23.26;69.31
6387;BME280;3226;42.162;24.756;2023-06-22T04:57:48;99974.53;;;23.61;68.22
6387;BME280;3226;42.162;24.756;2023-06-22T05:00:17;99971.25;;;23.65;67.18
6387;BME280;3226;42.162;24.756;2023-06-22T05:02:46;99964.25;;;23.64;67.33
6387;BME280;3226;42.162;24.756;2023-06-22T05:05:15;99962.38;;;23.65;67.28
6387;BME280;3226;42.162;24.756;2023-06-22T05:07:45;99966.31;;;23.62;68.20
6387;BME280;3226;42.162;24.756;2023-06-22T05:10:15;99963.41;;;23.50;69.15
6387;BME280;3226;42.162;24.756;2023-06-22T05:12:43;99968.75;;;23.50;69.00
6387;BME280;3226;42.162;24.756;2023-06-22T05:15:11;99957.25;;;23.50;69.18
6387;BME280;3226;42.162;24.756;2023-06-22T05:17:39;99957.25;;;23.50;69.44
6387;BME280;3226;42.162;24.756;2023-06-22T05:20:10;99964.03;;;23.52;69.02
6387;BME280;3226;42.162;24.756;2023-06-22T05:22:39;99961.56;;;23.64;68.76
6387;BME280;3226;42.162;24.756;2023-06-22T05:25:10;99961.56;;;23.78;68.13
6387;BME280;3226;42.162;24.756;2023-06-22T05:27:38;99962.59;;;23.90;66.95
6387;BME280;3226;42.162;24.756;2023-06-22T05:30:08;99960.97;;;24.03;66.33
6387;BME280;3226;42.162;24.756;2023-06-22T05:32:36;99965.25;;;23.97;66.06
6387;BME280;3226;42.162;24.756;2023-06-22T05:35:05;99965.09;;;24.05;65.46
6387;BME280;3226;42.162;24.756;2023-06-22T05:37:33;99939.34;;;23.84;65.71
6387;BME280;3226;42.162;24.756;2023-06-22T05:40:01;99965.28;;;23.90;66.15
6387;BME280;3226;42.162;24.756;2023-06-22T05:42:31;99962.19;;;24.07;66.15
6387;BME280;3226;42.162;24.756;2023-06-22T05:44:59;99963.78;;;24.21;64.60
6387;BME280;3226;42.162;24.756;2023-06-22T05:47:27;99959.44;;;24.40;63.40
6387;BME280;3226;42.162;24.756;2023-06-22T05:49:55;99968.47;;;24.46;63.64
6387;BME280;3226;42.162;24.756;2023-06-22T05:52:23;99969.25;;;24.60;62.74
6387;BME280;3226;42.162;24.756;2023-06-22T05:54:51;99962.69;;;24.49;62.14
6387;BME280;3226;42.162;24.756;2023-06-22T05:57:19;99957.06;;;24.64;62.44
6387;BME280;3226;42.162;24.756;2023-06-22T05:59:49;99968.94;;;24.89;62.47
6387;BME280;3226;42.162;24.756;2023-06-22T06:02:18;99933.22;;;24.63;61.66
6387;BME280;3226;42.162;24.756;2023-06-22T06:04:46;99962.69;;;25.02;61.19
6387;BME280;3226;42.162;24.756;2023-06-22T06:07:14;99964.88;;;25.18;60.49
6387;BME280;3226;42.162;24.756;2023-06-22T06:09:42;99973.66;;;25.32;58.85
6387;BME280;3226;42.162;24.756;2023-06-22T06:12:10;99975.66;;;25.37;57.91
6387;BME280;3226;42.162;24.756;2023-06-22T06:14:38;99975.38;;;25.52;57.10
6387;BME280;3226;42.162;24.756;2023-06-22T06:17:07;99969.66;;;25.74;56.31
6387;BME280;3226;42.162;24.756;2023-06-22T06:19:35;99952.25;;;25.83;56.06
6387;BME280;3226;42.162;24.756;2023-06-22T06:22:03;99963.44;;;25.98;55.27
6387;BME280;3226;42.162;24.756;2023-06-22T06:24:31;99961.41;;;26.19;55.42
6387;BME280;3226;42.162;24.756;2023-06-22T06:26:59;99968.13;;;26.47;53.84
6387;BME280;3226;42.162;24.756;2023-06-22T06:29:31;99956.25;;;27.04;52.07
6387;BME280;3226;42.162;24.756;2023-06-22T06:31:59;99953.59;;;27.16;51.70
6387;BME280;3226;42.162;24.756;2023-06-22T06:34:29;99957.91;;;27.05;52.51
6387;BME280;3226;42.162;24.756;2023-06-22T06:36:57;99958.75;;;26.87;52.25
6387;BME280;3226;42.162;24.756;2023-06-22T06:39:25;99963.88;;;26.58;53.26
6387;BME280;3226;42.162;24.756;2023-06-22T06:41:53;99962.69;;;26.54;53.19
6387;BME280;3226;42.162;24.756;2023-06-22T06:44:20;99961.78;;;26.60;53.32
6387;BME280;3226;42.162;24.756;2023-06-22T06:46:49;99953.03;;;26.65;53.35
6387;BME280;3226;42.162;24.756;2023-06-22T06:49:17;99963.88;;;26.58;54.31
6387;BME280;3226;42.162;24.756;2023-06-22T06:51:46;99958.19;;;26.66;53.66
6387;BME280;3226;42.162;24.756;2023-06-22T06:54:14;99960.47;;;26.81;53.18
6387;BME280;3226;42.162;24.756;2023-06-22T06:56:42;99955.09;;;26.81;53.26
6387;BME280;3226;42.162;24.756;2023-06-22T06:59:15;99960.03;;;26.84;52.99
6387;BME280;3226;42.162;24.756;2023-06-22T07:01:43;99948.09;;;26.62;53.20
6387;BME280;3226;42.162;24.756;2023-06-22T07:04:11;99953.31;;;26.75;53.53
6387;BME280;3226;42.162;24.756;2023-06-22T07:06:39;99905.84;;;26.57;53.61
6387;BME280;3226;42.162;24.756;2023-06-22T07:09:08;99949.72;;;26.81;53.17
6387;BME280;3226;42.162;24.756;2023-06-22T07:11:36;99945.31;;;26.87;52.04
6387;BME280;3226;42.162;24.756;2023-06-22T07:14:04;99949.94;;;26.98;52.01
6387;BME280;3226;42.162;24.756;2023-06-22T07:16:32;99954.97;;;27.07;52.17
6387;BME280;3226;42.162;24.756;2023-06-22T07:19:00;99950.78;;;27.11;51.77
6387;BME280;3226;42.162;24.756;2023-06-22T07:21:28;99955.47;;;27.16;51.53
6387;BME280;3226;42.162;24.756;2023-06-22T07:23:56;99956.41;;;27.21;50.98
6387;BME280;3226;42.162;24.756;2023-06-22T07:26:25;99950.81;;;27.23;50.96
6387;BME280;3226;42.162;24.756;2023-06-22T07:28:53;99957.03;;;27.23;51.46
6387;BME280;3226;42.162;24.756;2023-06-22T07:31:21;99959.09;;;27.09;50.51
6387;BME280;3226;42.162;24.756;2023-06-22T07:33:49;99954.97;;;26.76;50.80
6387;BME280;3226;42.162;24.756;2023-06-22T07:36:17;99963.91;;;26.89;50.24
6387;BME280;3226;42.162;24.756;2023-06-22T07:38:45;99958.47;;;26.95;51.17
6387;BME280;3226;42.162;24.756;2023-06-22T07:41:13;99957.44;;;27.08;50.91
6387;BME280;3226;42.162;24.756;2023-06-22T07:43:43;99965.19;;;27.17;50.20
6387;BME280;3226;42.162;24.756;2023-06-22T07:46:11;99964.47;;;27.21;49.90
6387;BME280;3226;42.162;24.756;2023-06-22T07:48:39;99967.78;;;27.23;49.02
6387;BME280;3226;42.162;24.756;2023-06-22T07:51:08;99957.28;;;27.34;47.74
6387;BME280;3226;42.162;24.756;2023-06-22T07:53:39;99962.00;;;27.50;48.65
6387;BME280;3226;42.162;24.756;2023-06-22T07:56:09;99955.34;;;27.53;48.25
6387;BME280;3226;42.162;24.756;2023-06-22T07:58:37;99951.97;;;27.69;48.38
6387;BME280;3226;42.162;24.756;2023-06-22T08:01:07;99952.09;;;27.63;47.68
6387;BME280;3226;42.162;24.756;2023-06-22T08:03:36;99950.00;;;27.65;47.58
6387;BME280;3226;42.162;24.756;2023-06-22T08:06:04;99947.31;;;27.77;48.40
6387;BME280;3226;42.162;24.756;2023-06-22T08:08:32;99942.84;;;27.94;48.05
6387;BME280;3226;42.162;24.756;2023-06-22T08:11:00;99949.06;;;27.95;48.01
6387;BME280;3226;42.162;24.756;2023-06-22T08:13:28;99944.81;;;28.11;47.63
6387;BME280;3226;42.162;24.756;2023-06-22T08:15:56;99921.31;;;28.06;46.89
6387;BME280;3226;42.162;24.756;2023-06-22T08:18:25;99932.31;;;28.17;46.85
6387;BME280;3226;42.162;24.756;2023-06-22T08:20:53;99927.59;;;28.36;46.73
6387;BME280;3226;42.162;24.756;2023-06-22T08:23:21;99928.31;;;28.60;46.07
6387;BME280;3226;42.162;24.756;2023-06-22T08:25:49;99933.66;;;28.72;45.87
6387;BME280;3226;42.162;24.756;2023-06-22T08:28:17;99933.72;;;28.60;46.00
6387;BME280;3226;42.162;24.756;2023-06-22T08:30:46;99922.84;;;28.55;44.32
6387;BME280;3226;42.162;24.756;2023-06-22T08:33:14;99921.38;;;28.47;43.06
6387;BME280;3226;42.162;24.756;2023-06-22T08:35:54;99921.06;;;28.61;43.18
6387;BME280;3226;42.162;24.756;2023-06-22T08:38:22;99929.25;;;28.66;43.83
6387;BME280;3226;42.162;24.756;2023-06-22T08:40:50;99918.97;;;28.92;43.23
6387;BME280;3226;42.162;24.756;2023-06-22T08:43:18;99917.03;;;29.04;42.22
6387;BME280;3226;42.162;24.756;2023-06-22T08:45:46;99907.59;;;29.19;42.16
6387;BME280;3226;42.162;24.756;2023-06-22T08:48:14;99916.88;;;29.28;42.65
6387;BME280;3226;42.162;24.756;2023-06-22T08:50:42;99911.19;;;29.41;41.71
6387;BME280;3226;42.162;24.756;2023-06-22T08:53:12;99910.28;;;29.53;41.02
6387;BME280;3226;42.162;24.756;2023-06-22T08:55:39;99915.75;;;29.58;39.72
6387;BME280;3226;42.162;24.756;2023-06-22T08:58:08;99921.47;;;29.45;40.30
6387;BME280;3226;42.162;24.756;2023-06-22T09:00:36;99923.44;;;29.66;40.51
6387;BME280;3226;42.162;24.756;2023-06-22T09:03:04;99909.88;;;29.61;39.54
6387;BME280;3226;42.162;24.756;2023-06-22T09:05:32;99915.19;;;29.56;38.97
6387;BME280;3226;42.162;24.756;2023-06-22T09:08:00;99918.03;;;29.66;38.96
6387;BME280;3226;42.162;24.756;2023-06-22T09:10:29;99918.31;;;29.87;38.84
6387;BME280;3226;42.162;24.756;2023-06-22T09:12:58;99911.53;;;30.02;39.80
6387;BME280;3226;42.162;24.756;2023-06-22T09:15:26;99904.69;;;30.16;40.08
6387;BME280;3226;42.162;24.756;2023-06-22T09:17:54;99909.22;;;30.33;39.64
6387;BME280;3226;42.162;24.756;2023-06-22T09:20:24;99910.28;;;30.32;40.32
6387;BME280;3226;42.162;24.756;2023-06-22T09:22:52;99906.28;;;30.39;39.51
6387;BME280;3226;42.162;24.756;2023-06-22T09:25:20;99905.53;;;30.44;38.90
6387;BME280;3226;42.162;24.756;2023-06-22T09:27:50;99905.72;;;30.60;38.35
6387;BME280;3226;42.162;24.756;2023-06-22T09:30:18;99905.06;;;30.75;38.61
6387;BME280;3226;42.162;24.756;2023-06-22T09:32:46;99900.53;;;30.80;37.64
6387;BME280;3226;42.162;24.756;2023-06-22T09:35:14;99900.81;;;30.56;36.88
6387;BME280;3226;42.162;24.756;2023-06-22T09:37:42;99895.81;;;30.43;38.74
6387;BME280;3226;42.162;24.756;2023-06-22T09:40:11;99898.66;;;30.31;38.95
6387;BME280;3226;42.162;24.756;2023-06-22T09:42:41;99890.44;;;30.21;38.20
6387;BME280;3226;42.162;24.756;2023-06-22T09:45:11;99891.63;;;30.57;36.34
6387;BME280;3226;42.162;24.756;2023-06-22T09:47:39;99892.19;;;31.14;35.24
6387;BME280;3226;42.162;24.756;2023-06-22T09:50:07;99894.44;;;32.09;33.93
6387;BME280;3226;42.162;24.756;2023-06-22T09:52:36;99898.16;;;32.66;32.61
6387;BME280;3226;42.162;24.756;2023-06-22T09:55:07;99893.69;;;32.29;31.86
6387;BME280;3226;42.162;24.756;2023-06-22T09:57:35;99900.56;;;31.46;33.36
6387;BME280;3226;42.162;24.756;2023-06-22T10:00:04;99885.94;;;31.41;34.19
6387;BME280;3226;42.162;24.756;2023-06-22T10:02:36;99887.06;;;31.51;34.64
6387;BME280;3226;42.162;24.756;2023-06-22T10:05:05;99895.22;;;31.61;35.01
6387;BME280;3226;42.162;24.756;2023-06-22T10:07:34;99886.81;;;31.52;35.56
6387;BME280;3226;42.162;24.756;2023-06-22T10:10:07;99878.94;;;31.51;34.88
6387;BME280;3226;42.162;24.756;2023-06-22T10:12:35;99883.84;;;31.54;34.50
6387;BME280;3226;42.162;24.756;2023-06-22T10:15:04;99890.91;;;31.60;34.69
6387;BME280;3226;42.162;24.756;2023-06-22T10:17:33;99879.59;;;31.68;33.83
6387;BME280;3226;42.162;24.756;2023-06-22T10:20:03;99870.69;;;31.73;34.48
6387;BME280;3226;42.162;24.756;2023-06-22T10:22:38;99878.31;;;31.76;33.67
6387;BME280;3226;42.162;24.756;2023-06-22T10:25:07;99873.06;;;31.64;34.56
6387;BME280;3226;42.162;24.756;2023-06-22T10:27:35;99870.34;;;31.64;34.03
6387;BME280;3226;42.162;24.756;2023-06-22T10:30:07;99868.94;;;31.51;34.96
6387;BME280;3226;42.162;24.756;2023-06-22T10:32:37;99869.50;;;31.53;34.20
6387;BME280;3226;42.162;24.756;2023-06-22T10:35:07;99866.59;;;31.65;33.53
6387;BME280;3226;42.162;24.756;2023-06-22T10:37:37;99865.78;;;31.70;33.77
6387;BME280;3226;42.162;24.756;2023-06-22T10:40:06;99845.50;;;31.67;33.64
6387;BME280;3226;42.162;24.756;2023-06-22T10:42:35;99862.13;;;31.86;32.92
6387;BME280;3226;42.162;24.756;2023-06-22T10:45:03;99847.41;;;31.72;33.22
6387;BME280;3226;42.162;24.756;2023-06-22T10:47:31;99846.66;;;31.82;32.35
6387;BME280;3226;42.162;24.756;2023-06-22T10:49:59;99844.84;;;31.50;31.40
6387;BME280;3226;42.162;24.756;2023-06-22T10:52:28;99846.47;;;31.51;31.59
6387;BME280;3226;42.162;24.756;2023-06-22T10:54:57;99845.94;;;31.49;32.87
6387;BME280;3226;42.162;24.756;2023-06-22T10:57:25;99838.06;;;31.09;32.31
6387;BME280;3226;42.162;24.756;2023-06-22T10:59:53;99830.94;;;30.65;32.45
6387;BME280;3226;42.162;24.756;2023-06-22T11:02:21;99834.69;;;30.92;32.59
6387;BME280;3226;42.162;24.756;2023-06-22T11:04:49;99824.41;;;31.21;32.54
6387;BME280;3226;42.162;24.756;2023-06-22T11:07:17;99832.53;;;31.26;32.36
6387;BME280;3226;42.162;24.756;2023-06-22T11:09:47;99825.34;;;31.42;33.19
6387;BME280;3226;42.162;24.756;2023-06-22T11:12:15;99824.47;;;31.37;33.29
6387;BME280;3226;42.162;24.756;2023-06-22T11:14:43;99822.59;;;31.37;32.66
6387;BME280;3226;42.162;24.756;2023-06-22T11:17:11;99818.19;;;31.26;32.88
6387;BME280;3226;42.162;24.756;2023-06-22T11:19:39;99831.19;;;31.29;33.42
6387;BME280;3226;42.162;24.756;2023-06-22T11:22:08;99837.50;;;31.45;32.72
6387;BME280;3226;42.162;24.756;2023-06-22T11:24:36;99822.91;;;31.46;33.20
6387;BME280;3226;42.162;24.756;2023-06-22T11:27:06;99826.75;;;31.55;33.29
6387;BME280;3226;42.162;24.756;2023-06-22T11:29:34;99829.13;;;31.47;33.46
6387;BME280;3226;42.162;24.756;2023-06-22T11:32:05;99826.34;;;31.31;32.93
6387;BME280;3226;42.162;24.756;2023-06-22T11:34:35;99818.88;;;31.49;33.24
6387;BME280;3226;42.162;24.756;2023-06-22T11:37:04;99821.34;;;31.55;32.75
6387;BME280;3226;42.162;24.756;2023-06-22T11:39:32;99822.88;;;31.41;32.82
6387;BME280;3226;42.162;24.756;2023-06-22T11:42:10;99838.56;;;31.01;32.83
6387;BME280;3226;42.162;24.756;2023-06-22T11:44:38;99819.94;;;31.10;33.30
6387;BME280;3226;42.162;24.756;2023-06-22T11:47:06;99821.53;;;31.38;34.16
6387;BME280;3226;42.162;24.756;2023-06-22T11:49:34;99830.56;;;31.59;33.49
6387;BME280;3226;42.162;24.756;2023-06-22T11:52:02;99819.00;;;31.75;32.17
6387;BME280;3226;42.162;24.756;2023-06-22T11:54:30;99822.78;;;31.73;32.18
6387;BME280;3226;42.162;24.756;2023-06-22T11:56:58;99816.38;;;31.95;32.66
6387;BME280;3226;42.162;24.756;2023-06-22T11:59:27;99813.72;;;32.00;32.38
6387;BME280;3226;42.162;24.756;2023-06-22T12:01:55;99817.00;;;32.18;32.97
6387;BME280;3226;42.162;24.756;2023-06-22T12:04:24;99810.53;;;32.35;32.57
6387;BME280;3226;42.162;24.756;2023-06-22T12:06:52;99806.50;;;32.53;32.18
6387;BME280;3226;42.162;24.756;2023-06-22T12:09:20;99807.34;;;32.58;33.15
6387;BME280;3226;42.162;24.756;2023-06-22T12:11:48;99811.13;;;32.57;32.64
6387;BME280;3226;42.162;24.756;2023-06-22T12:14:16;99805.41;;;32.38;32.30
6387;BME280;3226;42.162;24.756;2023-06-22T12:16:45;99800.19;;;32.06;32.90
6387;BME280;3226;42.162;24.756;2023-06-22T12:19:13;99801.19;;;31.84;32.80
6387;BME280;3226;42.162;24.756;2023-06-22T12:21:41;99796.25;;;31.65;33.46
6387;BME280;3226;42.162;24.756;2023-06-22T12:24:12;99793.91;;;31.84;34.37
6387;BME280;3226;42.162;24.756;2023-06-22T12:26:40;99785.03;;;32.05;34.10
6387;BME280;3226;42.162;24.756;2023-06-22T12:29:08;99792.06;;;32.16;34.95
6387;BME280;3226;42.162;24.756;2023-06-22T12:31:36;99790.16;;;32.16;33.75
6387;BME280;3226;42.162;24.756;2023-06-22T12:34:07;99781.31;;;32.42;33.36
6387;BME280;3226;42.162;24.756;2023-06-22T12:36:34;99780.16;;;32.01;33.33
6387;BME280;3226;42.162;24.756;2023-06-22T12:39:03;99780.09;;;31.91;33.26
6387;BME280;3226;42.162;24.756;2023-06-22T12:41:31;99773.34;;;31.89;33.35
6387;BME280;3226;42.162;24.756;2023-06-22T12:43:59;99776.06;;;31.99;32.51
6387;BME280;3226;42.162;24.756;2023-06-22T12:46:27;99778.22;;;31.97;32.69
6387;BME280;3226;42.162;24.756;2023-06-22T12:48:55;99774.97;;;31.90;33.63
6387;BME280;3226;42.162;24.756;2023-06-22T12:51:25;99770.75;;;31.61;34.02
6387;BME280;3226;42.162;24.756;2023-06-22T12:53:53;99772.34;;;31.52;33.18
6387;BME280;3226;42.162;24.756;2023-06-22T12:56:21;99773.38;;;31.35;32.99
6387;BME280;3226;42.162;24.756;2023-06-22T12:58:48;99767.44;;;31.43;33.43
6387;BME280;3226;42.162;24.756;2023-06-22T13:01:16;99763.66;;;31.44;33.75
6387;BME280;3226;42.162;24.756;2023-06-22T13:03:45;99759.31;;;31.38;34.98
6387;BME280;3226;42.162;24.756;2023-06-22T13:06:13;99765.63;;;31.65;35.15
6387;BME280;3226;42.162;24.756;2023-06-22T13:08:42;99767.03;;;31.72;35.34
6387;BME280;3226;42.162;24.756;2023-06-22T13:11:30;99764.91;;;31.21;34.78
6387;BME280;3226;42.162;24.756;2023-06-22T13:13:58;99760.06;;;31.28;34.62
6387;BME280;3226;42.162;24.756;2023-06-22T13:16:26;99765.69;;;31.22;34.60
6387;BME280;3226;42.162;24.756;2023-06-22T13:18:54;99767.16;;;30.97;35.56